sensor_id;sensor_type;location;lat;lon;timestamp;temperature;humidity
1277;DHT22;631;51.024;13.826;2023-05-09T00:00:14;9.60;84.00
1277;DHT22;631;51.024;13.826;2023-05-09T00:02:40;9.60;83.70
1277;DHT22;631;51.024;13.826;2023-05-09T00:05:10;9.60;83.50
1277;DHT22;631;51.024;13.826;2023-05-09T00:07:36;9.60;83.10
1277;DHT22;631;51.024;13.826;2023-05-09T00:10:02;9.60;83.00
1277;DHT22;631;51.024;13.826;2023-05-09T00:12:28;9.50;82.60
1277;DHT22;631;51.024;13.826;2023-05-09T00:14:54;9.60;82.70
1277;DHT22;631;51.024;13.826;2023-05-09T00:17:21;9.60;82.50
1277;DHT22;631;51.024;13.826;2023-05-09T00:19:48;9.50;82.50
1277;DHT22;631;51.024;13.826;2023-05-09T00:22:15;9.50;82.70
1277;DHT22;631;51.024;13.826;2023-05-09T00:24:41;9.50;82.50
1277;DHT22;631;51.024;13.826;2023-05-09T00:27:07;9.50;83.00
1277;DHT22;631;51.024;13.826;2023-05-09T00:29:32;9.40;83.10
1277;DHT22;631;51.024;13.826;2023-05-09T00:31:58;9.50;83.00
1277;DHT22;631;51.024;13.826;2023-05-09T00:34:24;9.50;82.70
1277;DHT22;631;51.024;13.826;2023-05-09T00:36:49;9.40;82.50
1277;DHT22;631;51.024;13.826;2023-05-09T00:39:15;9.40;82.60
1277;DHT22;631;51.024;13.826;2023-05-09T00:41:41;9.40;82.60
1277;DHT22;631;51.024;13.826;2023-05-09T00:44:07;9.30;82.60
1277;DHT22;631;51.024;13.826;2023-05-09T00:46:33;9.40;82.40
1277;DHT22;631;51.024;13.826;2023-05-09T00:48:59;9.30;82.70
1277;DHT22;631;51.024;13.826;2023-05-09T00:51:25;9.30;82.70
1277;DHT22;631;51.024;13.826;2023-05-09T00:53:52;9.30;82.50
1277;DHT22;631;51.024;13.826;2023-05-09T00:56:18;9.30;82.40
1277;DHT22;631;51.024;13.826;2023-05-09T00:58:44;9.20;82.10
1277;DHT22;631;51.024;13.826;2023-05-09T01:01:09;9.30;82.40
1277;DHT22;631;51.024;13.826;2023-05-09T01:03:37;9.30;82.50
1277;DHT22;631;51.024;13.826;2023-05-09T01:06:45;9.20;82.50
1277;DHT22;631;51.024;13.826;2023-05-09T01:12:22;9.20;82.50
1277;DHT22;631;51.024;13.826;2023-05-09T01:14:59;9.10;82.50
1277;DHT22;631;51.024;13.826;2023-05-09T01:17:57;9.10;82.60
1277;DHT22;631;51.024;13.826;2023-05-09T01:20:46;9.10;82.80
1277;DHT22;631;51.024;13.826;2023-05-09T01:23:52;9.10;82.70
1277;DHT22;631;51.024;13.826;2023-05-09T01:26:45;9.10;82.70
1277;DHT22;631;51.024;13.826;2023-05-09T01:29:43;9.00;83.10
1277;DHT22;631;51.024;13.826;2023-05-09T01:32:18;9.00;83.30
1277;DHT22;631;51.024;13.826;2023-05-09T01:34:48;9.00;83.20
1277;DHT22;631;51.024;13.826;2023-05-09T01:37:18;9.00;83.50
1277;DHT22;631;51.024;13.826;2023-05-09T01:39:46;8.90;83.60
1277;DHT22;631;51.024;13.826;2023-05-09T01:42:13;8.90;83.70
1277;DHT22;631;51.024;13.826;2023-05-09T01:44:42;8.90;84.30
1277;DHT22;631;51.024;13.826;2023-05-09T01:47:09;8.90;83.90
1277;DHT22;631;51.024;13.826;2023-05-09T01:49:36;8.90;84.00
1277;DHT22;631;51.024;13.826;2023-05-09T01:52:06;8.90;84.10
1277;DHT22;631;51.024;13.826;2023-05-09T01:54:33;8.90;84.10
1277;DHT22;631;51.024;13.826;2023-05-09T01:57:00;8.90;84.20
1277;DHT22;631;51.024;13.826;2023-05-09T01:59:28;8.80;84.10
1277;DHT22;631;51.024;13.826;2023-05-09T02:01:54;8.80;84.50
1277;DHT22;631;51.024;13.826;2023-05-09T02:04:21;8.70;84.60
1277;DHT22;631;51.024;13.826;2023-05-09T02:06:48;8.70;85.00
1277;DHT22;631;51.024;13.826;2023-05-09T02:09:18;8.70;84.90
1277;DHT22;631;51.024;13.826;2023-05-09T02:11:44;8.70;85.10
1277;DHT22;631;51.024;13.826;2023-05-09T02:14:11;8.70;85.10
1277;DHT22;631;51.024;13.826;2023-05-09T02:16:38;8.70;85.30
1277;DHT22;631;51.024;13.826;2023-05-09T02:19:04;8.70;85.60
1277;DHT22;631;51.024;13.826;2023-05-09T02:21:30;8.70;85.80
1277;DHT22;631;51.024;13.826;2023-05-09T02:23:56;8.60;85.40
1277;DHT22;631;51.024;13.826;2023-05-09T02:26:22;8.60;85.80
1277;DHT22;631;51.024;13.826;2023-05-09T02:28:48;8.60;86.30
1277;DHT22;631;51.024;13.826;2023-05-09T02:31:15;8.60;85.80
1277;DHT22;631;51.024;13.826;2023-05-09T02:33:44;8.50;85.90
1277;DHT22;631;51.024;13.826;2023-05-09T02:36:11;8.50;86.90
1277;DHT22;631;51.024;13.826;2023-05-09T02:38:38;8.50;86.60
1277;DHT22;631;51.024;13.826;2023-05-09T02:41:04;8.50;86.30
1277;DHT22;631;51.024;13.826;2023-05-09T02:43:29;8.40;86.80
1277;DHT22;631;51.024;13.826;2023-05-09T02:45:55;8.40;86.90
1277;DHT22;631;51.024;13.826;2023-05-09T02:48:20;8.40;87.60
1277;DHT22;631;51.024;13.826;2023-05-09T02:50:46;8.30;87.70
1277;DHT22;631;51.024;13.826;2023-05-09T02:53:12;8.30;88.00
1277;DHT22;631;51.024;13.826;2023-05-09T02:55:37;8.30;88.30
1277;DHT22;631;51.024;13.826;2023-05-09T02:58:03;8.30;88.60
1277;DHT22;631;51.024;13.826;2023-05-09T03:00:28;8.20;88.70
1277;DHT22;631;51.024;13.826;2023-05-09T03:02:54;8.20;89.30
1277;DHT22;631;51.024;13.826;2023-05-09T03:05:20;8.20;90.00
1277;DHT22;631;51.024;13.826;2023-05-09T03:07:46;8.20;89.90
1277;DHT22;631;51.024;13.826;2023-05-09T03:10:11;8.10;89.90
1277;DHT22;631;51.024;13.826;2023-05-09T03:12:38;8.10;90.10
1277;DHT22;631;51.024;13.826;2023-05-09T03:15:05;8.00;90.20
1277;DHT22;631;51.024;13.826;2023-05-09T03:17:31;8.00;90.20
1277;DHT22;631;51.024;13.826;2023-05-09T03:19:57;8.00;90.20
1277;DHT22;631;51.024;13.826;2023-05-09T03:22:22;8.00;90.30
1277;DHT22;631;51.024;13.826;2023-05-09T03:24:48;7.90;90.50
1277;DHT22;631;51.024;13.826;2023-05-09T03:27:14;7.90;90.40
1277;DHT22;631;51.024;13.826;2023-05-09T03:29:39;7.90;90.60
1277;DHT22;631;51.024;13.826;2023-05-09T03:32:05;7.90;90.70
1277;DHT22;631;51.024;13.826;2023-05-09T03:34:30;7.90;90.90
1277;DHT22;631;51.024;13.826;2023-05-09T03:36:56;7.90;91.10
1277;DHT22;631;51.024;13.826;2023-05-09T03:39:22;7.80;91.00
1277;DHT22;631;51.024;13.826;2023-05-09T03:41:47;7.80;91.10
1277;DHT22;631;51.024;13.826;2023-05-09T03:44:13;7.80;91.00
1277;DHT22;631;51.024;13.826;2023-05-09T03:46:39;7.80;91.10
1277;DHT22;631;51.024;13.826;2023-05-09T03:49:05;7.90;91.00
1277;DHT22;631;51.024;13.826;2023-05-09T03:51:30;7.80;91.10
1277;DHT22;631;51.024;13.826;2023-05-09T03:53:57;7.80;91.00
1277;DHT22;631;51.024;13.826;2023-05-09T03:56:22;7.80;90.70
1277;DHT22;631;51.024;13.826;2023-05-09T03:58:48;7.80;90.90
1277;DHT22;631;51.024;13.826;2023-05-09T04:01:14;7.80;90.50
1277;DHT22;631;51.024;13.826;2023-05-09T04:03:40;7.80;90.50
1277;DHT22;631;51.024;13.826;2023-05-09T04:06:06;7.80;90.40
1277;DHT22;631;51.024;13.826;2023-05-09T04:08:32;7.90;90.30
1277;DHT22;631;51.024;13.826;2023-05-09T04:10:58;7.90;90.20
1277;DHT22;631;51.024;13.826;2023-05-09T04:13:23;7.90;89.90
1277;DHT22;631;51.024;13.826;2023-05-09T04:15:49;7.90;89.40
1277;DHT22;631;51.024;13.826;2023-05-09T04:18:15;8.00;89.40
1277;DHT22;631;51.024;13.826;2023-05-09T04:20:41;8.00;89.30
1277;DHT22;631;51.024;13.826;2023-05-09T04:23:06;8.00;88.70
1277;DHT22;631;51.024;13.826;2023-05-09T04:25:32;8.10;88.50
1277;DHT22;631;51.024;13.826;2023-05-09T04:27:58;8.10;88.10
1277;DHT22;631;51.024;13.826;2023-05-09T04:30:24;8.20;88.30
1277;DHT22;631;51.024;13.826;2023-05-09T04:32:53;8.30;88.40
1277;DHT22;631;51.024;13.826;2023-05-09T04:35:19;8.40;87.70
1277;DHT22;631;51.024;13.826;2023-05-09T04:37:45;8.40;87.90
1277;DHT22;631;51.024;13.826;2023-05-09T04:40:11;8.40;87.10
1277;DHT22;631;51.024;13.826;2023-05-09T04:42:38;8.40;86.80
1277;DHT22;631;51.024;13.826;2023-05-09T04:45:04;8.50;86.40
1277;DHT22;631;51.024;13.826;2023-05-09T04:47:30;8.50;85.70
1277;DHT22;631;51.024;13.826;2023-05-09T04:49:55;8.60;85.60
1277;DHT22;631;51.024;13.826;2023-05-09T04:52:21;8.60;86.20
1277;DHT22;631;51.024;13.826;2023-05-09T04:54:47;8.60;85.50
1277;DHT22;631;51.024;13.826;2023-05-09T04:57:12;8.60;85.40
1277;DHT22;631;51.024;13.826;2023-05-09T04:59:38;8.60;85.50
1277;DHT22;631;51.024;13.826;2023-05-09T05:02:03;8.60;85.10
1277;DHT22;631;51.024;13.826;2023-05-09T05:04:29;8.70;85.40
1277;DHT22;631;51.024;13.826;2023-05-09T05:06:54;8.80;86.00
1277;DHT22;631;51.024;13.826;2023-05-09T05:09:20;8.70;85.10
1277;DHT22;631;51.024;13.826;2023-05-09T05:11:46;8.80;84.50
1277;DHT22;631;51.024;13.826;2023-05-09T05:14:11;8.90;85.80
1277;DHT22;631;51.024;13.826;2023-05-09T05:16:37;8.90;86.90
1277;DHT22;631;51.024;13.826;2023-05-09T05:19:02;9.00;85.90
1277;DHT22;631;51.024;13.826;2023-05-09T05:21:28;9.00;85.30
1277;DHT22;631;51.024;13.826;2023-05-09T05:23:54;9.00;85.50
1277;DHT22;631;51.024;13.826;2023-05-09T05:26:19;9.10;85.70
1277;DHT22;631;51.024;13.826;2023-05-09T05:28:45;9.10;85.30
1277;DHT22;631;51.024;13.826;2023-05-09T05:31:11;9.20;84.80
1277;DHT22;631;51.024;13.826;2023-05-09T05:33:36;9.20;85.40
1277;DHT22;631;51.024;13.826;2023-05-09T05:36:02;9.30;85.10
1277;DHT22;631;51.024;13.826;2023-05-09T05:38:27;9.30;85.40
1277;DHT22;631;51.024;13.826;2023-05-09T05:40:53;9.40;84.10
1277;DHT22;631;51.024;13.826;2023-05-09T05:43:19;9.40;84.10
1277;DHT22;631;51.024;13.826;2023-05-09T05:45:44;9.50;84.50
1277;DHT22;631;51.024;13.826;2023-05-09T05:48:10;9.50;84.60
1277;DHT22;631;51.024;13.826;2023-05-09T05:50:35;9.60;84.60
1277;DHT22;631;51.024;13.826;2023-05-09T05:53:01;9.70;84.60
1277;DHT22;631;51.024;13.826;2023-05-09T05:55:27;9.80;85.10
1277;DHT22;631;51.024;13.826;2023-05-09T05:57:52;9.80;84.30
1277;DHT22;631;51.024;13.826;2023-05-09T06:00:18;9.90;82.60
1277;DHT22;631;51.024;13.826;2023-05-09T06:02:45;9.90;81.70
1277;DHT22;631;51.024;13.826;2023-05-09T06:05:12;10.00;78.80
1277;DHT22;631;51.024;13.826;2023-05-09T06:07:38;10.10;78.50
1277;DHT22;631;51.024;13.826;2023-05-09T06:10:06;10.20;78.30
1277;DHT22;631;51.024;13.826;2023-05-09T06:12:32;10.30;76.00
1277;DHT22;631;51.024;13.826;2023-05-09T06:14:58;10.40;76.40
1277;DHT22;631;51.024;13.826;2023-05-09T06:17:23;10.40;76.00
1277;DHT22;631;51.024;13.826;2023-05-09T06:19:49;10.50;76.30
1277;DHT22;631;51.024;13.826;2023-05-09T06:22:15;10.60;74.70
1277;DHT22;631;51.024;13.826;2023-05-09T06:24:40;10.70;74.10
1277;DHT22;631;51.024;13.826;2023-05-09T06:27:06;10.70;73.20
1277;DHT22;631;51.024;13.826;2023-05-09T06:29:32;10.80;73.30
1277;DHT22;631;51.024;13.826;2023-05-09T06:31:57;10.90;72.40
1277;DHT22;631;51.024;13.826;2023-05-09T06:34:23;11.00;72.00
1277;DHT22;631;51.024;13.826;2023-05-09T06:36:48;11.00;71.40
1277;DHT22;631;51.024;13.826;2023-05-09T06:39:14;11.10;70.70
1277;DHT22;631;51.024;13.826;2023-05-09T06:41:39;11.20;70.10
1277;DHT22;631;51.024;13.826;2023-05-09T06:44:05;11.20;69.90
1277;DHT22;631;51.024;13.826;2023-05-09T06:46:31;11.20;68.50
1277;DHT22;631;51.024;13.826;2023-05-09T06:48:56;11.20;67.80
1277;DHT22;631;51.024;13.826;2023-05-09T06:51:22;11.30;68.50
1277;DHT22;631;51.024;13.826;2023-05-09T06:53:48;11.30;67.20
1277;DHT22;631;51.024;13.826;2023-05-09T06:56:13;11.40;66.10
1277;DHT22;631;51.024;13.826;2023-05-09T06:58:39;11.50;65.90
1277;DHT22;631;51.024;13.826;2023-05-09T07:01:04;11.50;65.50
1277;DHT22;631;51.024;13.826;2023-05-09T07:03:30;11.60;66.40
1277;DHT22;631;51.024;13.826;2023-05-09T07:05:56;11.70;65.20
1277;DHT22;631;51.024;13.826;2023-05-09T07:08:23;11.80;64.50
1277;DHT22;631;51.024;13.826;2023-05-09T07:10:49;11.80;64.00
1277;DHT22;631;51.024;13.826;2023-05-09T07:13:15;11.90;64.20
1277;DHT22;631;51.024;13.826;2023-05-09T07:15:40;11.80;63.20
1277;DHT22;631;51.024;13.826;2023-05-09T07:18:06;11.90;63.20
1277;DHT22;631;51.024;13.826;2023-05-09T07:20:32;11.90;63.10
1277;DHT22;631;51.024;13.826;2023-05-09T07:22:58;12.00;62.60
1277;DHT22;631;51.024;13.826;2023-05-09T07:25:23;12.20;63.10
1277;DHT22;631;51.024;13.826;2023-05-09T07:27:49;12.30;61.20
1277;DHT22;631;51.024;13.826;2023-05-09T07:30:14;12.40;61.40
1277;DHT22;631;51.024;13.826;2023-05-09T07:32:40;12.50;60.80
1277;DHT22;631;51.024;13.826;2023-05-09T07:35:06;12.60;60.90
1277;DHT22;631;51.024;13.826;2023-05-09T07:37:32;12.70;59.60
1277;DHT22;631;51.024;13.826;2023-05-09T07:39:57;12.60;58.90
1277;DHT22;631;51.024;13.826;2023-05-09T07:42:23;12.70;58.40
1277;DHT22;631;51.024;13.826;2023-05-09T07:44:49;12.70;58.30
1277;DHT22;631;51.024;13.826;2023-05-09T07:47:14;12.80;57.90
1277;DHT22;631;51.024;13.826;2023-05-09T07:49:40;12.90;57.30
1277;DHT22;631;51.024;13.826;2023-05-09T07:52:07;12.90;57.00
1277;DHT22;631;51.024;13.826;2023-05-09T07:54:33;13.00;57.00
1277;DHT22;631;51.024;13.826;2023-05-09T07:56:59;13.10;57.50
1277;DHT22;631;51.024;13.826;2023-05-09T07:59:24;13.30;57.10
1277;DHT22;631;51.024;13.826;2023-05-09T08:01:50;13.40;55.50
1277;DHT22;631;51.024;13.826;2023-05-09T08:04:16;13.50;54.30
1277;DHT22;631;51.024;13.826;2023-05-09T08:06:41;13.40;54.00
1277;DHT22;631;51.024;13.826;2023-05-09T08:09:07;13.60;54.60
1277;DHT22;631;51.024;13.826;2023-05-09T08:11:33;13.70;55.00
1277;DHT22;631;51.024;13.826;2023-05-09T08:14:00;13.80;53.90
1277;DHT22;631;51.024;13.826;2023-05-09T08:16:26;13.90;53.50
1277;DHT22;631;51.024;13.826;2023-05-09T08:18:51;13.90;52.10
1277;DHT22;631;51.024;13.826;2023-05-09T08:21:18;13.80;52.00
1277;DHT22;631;51.024;13.826;2023-05-09T08:23:44;14.00;52.90
1277;DHT22;631;51.024;13.826;2023-05-09T08:26:09;14.00;51.60
1277;DHT22;631;51.024;13.826;2023-05-09T08:28:35;14.10;52.00
1277;DHT22;631;51.024;13.826;2023-05-09T08:31:01;14.10;51.10
1277;DHT22;631;51.024;13.826;2023-05-09T08:33:26;14.20;52.00
1277;DHT22;631;51.024;13.826;2023-05-09T08:35:52;14.50;52.40
1277;DHT22;631;51.024;13.826;2023-05-09T08:38:18;14.70;51.10
1277;DHT22;631;51.024;13.826;2023-05-09T08:40:44;14.80;49.40
1277;DHT22;631;51.024;13.826;2023-05-09T08:43:11;14.90;48.30
1277;DHT22;631;51.024;13.826;2023-05-09T08:45:51;15.20;48.80
1277;DHT22;631;51.024;13.826;2023-05-09T08:48:18;15.30;47.00
1277;DHT22;631;51.024;13.826;2023-05-09T08:50:45;15.40;46.30
1277;DHT22;631;51.024;13.826;2023-05-09T08:53:11;15.50;46.80
1277;DHT22;631;51.024;13.826;2023-05-09T08:55:38;15.80;46.50
1277;DHT22;631;51.024;13.826;2023-05-09T08:58:04;16.00;45.20
1277;DHT22;631;51.024;13.826;2023-05-09T09:00:30;16.10;43.70
1277;DHT22;631;51.024;13.826;2023-05-09T09:03:00;16.40;44.30
1277;DHT22;631;51.024;13.826;2023-05-09T09:05:30;16.50;43.60
1277;DHT22;631;51.024;13.826;2023-05-09T09:07:57;16.60;43.90
1277;DHT22;631;51.024;13.826;2023-05-09T09:10:24;17.00;43.80
1277;DHT22;631;51.024;13.826;2023-05-09T09:12:53;17.30;42.50
1277;DHT22;631;51.024;13.826;2023-05-09T09:15:22;17.80;41.40
1277;DHT22;631;51.024;13.826;2023-05-09T09:17:53;18.40;39.60
1277;DHT22;631;51.024;13.826;2023-05-09T09:20:22;18.90;37.90
1277;DHT22;631;51.024;13.826;2023-05-09T09:22:54;19.30;37.00
1277;DHT22;631;51.024;13.826;2023-05-09T09:25:22;19.80;36.50
1277;DHT22;631;51.024;13.826;2023-05-09T09:27:47;19.90;34.80
1277;DHT22;631;51.024;13.826;2023-05-09T09:30:13;19.60;33.90
1277;DHT22;631;51.024;13.826;2023-05-09T09:32:39;19.90;34.60
1277;DHT22;631;51.024;13.826;2023-05-09T09:35:09;20.20;32.20
1277;DHT22;631;51.024;13.826;2023-05-09T09:37:37;20.90;33.00
1277;DHT22;631;51.024;13.826;2023-05-09T09:40:06;20.80;30.60
1277;DHT22;631;51.024;13.826;2023-05-09T09:42:45;21.30;30.30
1277;DHT22;631;51.024;13.826;2023-05-09T09:47:39;21.70;29.00
1277;DHT22;631;51.024;13.826;2023-05-09T09:50:18;21.90;29.50
1277;DHT22;631;51.024;13.826;2023-05-09T09:52:55;21.80;27.80
1277;DHT22;631;51.024;13.826;2023-05-09T09:55:22;21.70;28.10
1277;DHT22;631;51.024;13.826;2023-05-09T09:57:49;22.10;28.20
1277;DHT22;631;51.024;13.826;2023-05-09T10:00:17;22.30;27.80
1277;DHT22;631;51.024;13.826;2023-05-09T10:03:01;22.70;28.10
1277;DHT22;631;51.024;13.826;2023-05-09T10:05:28;23.00;26.50
1277;DHT22;631;51.024;13.826;2023-05-09T10:07:58;22.40;25.50
1277;DHT22;631;51.024;13.826;2023-05-09T10:10:34;22.70;25.90
1277;DHT22;631;51.024;13.826;2023-05-09T10:13:06;22.90;25.40
1277;DHT22;631;51.024;13.826;2023-05-09T10:15:32;23.40;26.00
1277;DHT22;631;51.024;13.826;2023-05-09T10:17:59;23.20;24.60
1277;DHT22;631;51.024;13.826;2023-05-09T10:20:29;24.20;25.50
1277;DHT22;631;51.024;13.826;2023-05-09T10:23:01;23.30;23.80
1277;DHT22;631;51.024;13.826;2023-05-09T10:25:46;24.10;24.50
1277;DHT22;631;51.024;13.826;2023-05-09T10:28:18;24.40;23.40
1277;DHT22;631;51.024;13.826;2023-05-09T10:30:56;24.20;23.50
1277;DHT22;631;51.024;13.826;2023-05-09T10:33:30;24.90;25.00
1277;DHT22;631;51.024;13.826;2023-05-09T10:35:57;25.70;23.10
1277;DHT22;631;51.024;13.826;2023-05-09T10:38:25;25.30;21.70
1277;DHT22;631;51.024;13.826;2023-05-09T10:40:52;25.60;22.50
1277;DHT22;631;51.024;13.826;2023-05-09T10:43:19;24.90;21.00
1277;DHT22;631;51.024;13.826;2023-05-09T10:45:46;24.80;20.80
1277;DHT22;631;51.024;13.826;2023-05-09T10:48:12;24.80;21.30
1277;DHT22;631;51.024;13.826;2023-05-09T10:50:38;25.10;22.70
1277;DHT22;631;51.024;13.826;2023-05-09T10:53:07;26.10;22.50
1277;DHT22;631;51.024;13.826;2023-05-09T10:55:46;26.40;20.40
1277;DHT22;631;51.024;13.826;2023-05-09T11:00:48;26.90;18.80
1277;DHT22;631;51.024;13.826;2023-05-09T11:03:14;26.50;19.20
1277;DHT22;631;51.024;13.826;2023-05-09T11:05:40;26.20;19.20
1277;DHT22;631;51.024;13.826;2023-05-09T11:08:28;26.20;18.90
1277;DHT22;631;51.024;13.826;2023-05-09T11:11:04;26.10;18.30
1277;DHT22;631;51.024;13.826;2023-05-09T11:13:31;26.80;19.10
1277;DHT22;631;51.024;13.826;2023-05-09T11:18:26;27.40;17.70
1277;DHT22;631;51.024;13.826;2023-05-09T11:20:53;26.90;18.30
1277;DHT22;631;51.024;13.826;2023-05-09T11:23:20;27.20;19.40
1277;DHT22;631;51.024;13.826;2023-05-09T11:25:47;26.50;17.80
1277;DHT22;631;51.024;13.826;2023-05-09T11:28:35;27.70;19.80
1277;DHT22;631;51.024;13.826;2023-05-09T11:31:15;28.50;17.50
1277;DHT22;631;51.024;13.826;2023-05-09T11:33:42;28.00;16.20
1277;DHT22;631;51.024;13.826;2023-05-09T11:36:19;28.10;17.10
1277;DHT22;631;51.024;13.826;2023-05-09T11:38:59;26.40;15.90
1277;DHT22;631;51.024;13.826;2023-05-09T11:41:26;26.40;17.10
1277;DHT22;631;51.024;13.826;2023-05-09T11:43:53;26.60;17.40
1277;DHT22;631;51.024;13.826;2023-05-09T11:46:20;27.10;18.20
1277;DHT22;631;51.024;13.826;2023-05-09T11:48:48;27.00;17.50
1277;DHT22;631;51.024;13.826;2023-05-09T11:51:17;27.40;17.80
1277;DHT22;631;51.024;13.826;2023-05-09T11:53:49;26.90;16.00
1277;DHT22;631;51.024;13.826;2023-05-09T11:56:15;27.10;17.20
1277;DHT22;631;51.024;13.826;2023-05-09T11:58:41;27.80;16.60
1277;DHT22;631;51.024;13.826;2023-05-09T12:01:10;27.50;15.90
1277;DHT22;631;51.024;13.826;2023-05-09T12:03:41;27.30;16.40
1277;DHT22;631;51.024;13.826;2023-05-09T12:06:08;26.90;16.40
1277;DHT22;631;51.024;13.826;2023-05-09T12:08:33;26.60;16.10
1277;DHT22;631;51.024;13.826;2023-05-09T12:11:08;27.50;17.10
1277;DHT22;631;51.024;13.826;2023-05-09T12:13:33;27.10;16.30
1277;DHT22;631;51.024;13.826;2023-05-09T12:16:02;27.70;16.00
1277;DHT22;631;51.024;13.826;2023-05-09T12:18:28;28.10;15.80
1277;DHT22;631;51.024;13.826;2023-05-09T12:20:54;27.50;15.10
1277;DHT22;631;51.024;13.826;2023-05-09T12:23:19;27.80;15.40
1277;DHT22;631;51.024;13.826;2023-05-09T12:25:55;28.40;16.00
1277;DHT22;631;51.024;13.826;2023-05-09T12:28:24;28.60;14.40
1277;DHT22;631;51.024;13.826;2023-05-09T12:30:51;27.80;14.70
1277;DHT22;631;51.024;13.826;2023-05-09T12:33:17;27.80;15.30
1277;DHT22;631;51.024;13.826;2023-05-09T12:35:47;28.40;15.90
1277;DHT22;631;51.024;13.826;2023-05-09T12:38:21;28.40;14.80
1277;DHT22;631;51.024;13.826;2023-05-09T12:40:48;27.90;14.70
1277;DHT22;631;51.024;13.826;2023-05-09T12:43:14;27.30;14.20
1277;DHT22;631;51.024;13.826;2023-05-09T12:45:39;26.80;14.90
1277;DHT22;631;51.024;13.826;2023-05-09T12:48:07;26.60;15.50
1277;DHT22;631;51.024;13.826;2023-05-09T12:50:33;26.30;16.40
1277;DHT22;631;51.024;13.826;2023-05-09T12:53:01;26.80;17.40
1277;DHT22;631;51.024;13.826;2023-05-09T12:55:26;26.60;16.00
1277;DHT22;631;51.024;13.826;2023-05-09T12:58:00;27.50;16.80
1277;DHT22;631;51.024;13.826;2023-05-09T13:00:26;26.30;15.60
1277;DHT22;631;51.024;13.826;2023-05-09T13:02:51;26.30;15.70
1277;DHT22;631;51.024;13.826;2023-05-09T13:05:21;26.40;16.20
1277;DHT22;631;51.024;13.826;2023-05-09T13:07:51;26.80;17.00
1277;DHT22;631;51.024;13.826;2023-05-09T13:10:25;27.10;15.90
1277;DHT22;631;51.024;13.826;2023-05-09T13:12:52;27.10;15.70
1277;DHT22;631;51.024;13.826;2023-05-09T13:15:20;26.80;15.40
1277;DHT22;631;51.024;13.826;2023-05-09T13:17:47;26.80;17.20
1277;DHT22;631;51.024;13.826;2023-05-09T13:20:13;27.10;16.50
1277;DHT22;631;51.024;13.826;2023-05-09T13:22:39;27.40;16.00
1277;DHT22;631;51.024;13.826;2023-05-09T13:25:05;27.60;15.70
1277;DHT22;631;51.024;13.826;2023-05-09T13:27:32;28.50;15.70
1277;DHT22;631;51.024;13.826;2023-05-09T13:29:57;28.00;13.90
1277;DHT22;631;51.024;13.826;2023-05-09T13:32:23;27.10;14.90
1277;DHT22;631;51.024;13.826;2023-05-09T13:34:50;27.30;16.30
1277;DHT22;631;51.024;13.826;2023-05-09T13:37:15;26.80;15.80
1277;DHT22;631;51.024;13.826;2023-05-09T13:39:41;27.70;16.80
1277;DHT22;631;51.024;13.826;2023-05-09T13:42:06;28.10;15.70
1277;DHT22;631;51.024;13.826;2023-05-09T13:44:32;28.70;15.50
1277;DHT22;631;51.024;13.826;2023-05-09T13:46:58;29.30;15.50
1277;DHT22;631;51.024;13.826;2023-05-09T13:49:25;29.60;14.60
1277;DHT22;631;51.024;13.826;2023-05-09T13:51:51;28.50;14.20
1277;DHT22;631;51.024;13.826;2023-05-09T13:54:16;27.60;14.70
1277;DHT22;631;51.024;13.826;2023-05-09T13:56:44;26.90;15.70
1277;DHT22;631;51.024;13.826;2023-05-09T13:59:10;27.00;16.80
1277;DHT22;631;51.024;13.826;2023-05-09T14:01:36;26.90;18.00
1277;DHT22;631;51.024;13.826;2023-05-09T14:04:02;27.30;17.40
1277;DHT22;631;51.024;13.826;2023-05-09T14:06:28;27.40;18.20
1277;DHT22;631;51.024;13.826;2023-05-09T14:08:56;27.40;17.00
1277;DHT22;631;51.024;13.826;2023-05-09T14:11:22;27.60;17.90
1277;DHT22;631;51.024;13.826;2023-05-09T14:13:50;28.00;17.50
1277;DHT22;631;51.024;13.826;2023-05-09T14:16:19;26.90;16.70
1277;DHT22;631;51.024;13.826;2023-05-09T14:18:45;27.10;17.90
1277;DHT22;631;51.024;13.826;2023-05-09T14:21:11;26.40;18.00
1277;DHT22;631;51.024;13.826;2023-05-09T14:23:36;25.50;18.70
1277;DHT22;631;51.024;13.826;2023-05-09T14:26:02;26.30;19.40
1277;DHT22;631;51.024;13.826;2023-05-09T14:28:28;27.10;18.50
1277;DHT22;631;51.024;13.826;2023-05-09T14:30:54;27.40;17.10
1277;DHT22;631;51.024;13.826;2023-05-09T14:33:19;27.40;17.00
1277;DHT22;631;51.024;13.826;2023-05-09T14:35:45;27.30;17.90
1277;DHT22;631;51.024;13.826;2023-05-09T14:38:11;27.30;17.20
1277;DHT22;631;51.024;13.826;2023-05-09T14:40:38;27.10;17.60
1277;DHT22;631;51.024;13.826;2023-05-09T14:43:03;27.00;17.30
1277;DHT22;631;51.024;13.826;2023-05-09T14:45:30;27.20;18.10
1277;DHT22;631;51.024;13.826;2023-05-09T14:48:00;27.10;18.10
1277;DHT22;631;51.024;13.826;2023-05-09T14:50:27;27.40;17.50
1277;DHT22;631;51.024;13.826;2023-05-09T14:52:53;27.70;17.20
1277;DHT22;631;51.024;13.826;2023-05-09T14:55:19;26.70;17.00
1277;DHT22;631;51.024;13.826;2023-05-09T14:57:47;26.10;18.50
1277;DHT22;631;51.024;13.826;2023-05-09T15:00:13;26.00;18.00
1277;DHT22;631;51.024;13.826;2023-05-09T15:02:40;26.30;18.20
1277;DHT22;631;51.024;13.826;2023-05-09T15:05:06;26.00;17.60
1277;DHT22;631;51.024;13.826;2023-05-09T15:07:33;25.80;17.90
1277;DHT22;631;51.024;13.826;2023-05-09T15:09:59;26.30;18.30
1277;DHT22;631;51.024;13.826;2023-05-09T15:12:25;25.70;18.10
1277;DHT22;631;51.024;13.826;2023-05-09T15:14:51;25.60;18.30
1277;DHT22;631;51.024;13.826;2023-05-09T15:17:19;25.80;18.40
1277;DHT22;631;51.024;13.826;2023-05-09T15:19:44;25.80;18.20
1277;DHT22;631;51.024;13.826;2023-05-09T15:22:10;25.70;18.90
1277;DHT22;631;51.024;13.826;2023-05-09T15:24:36;25.20;18.60
1277;DHT22;631;51.024;13.826;2023-05-09T15:27:02;25.60;19.40
1277;DHT22;631;51.024;13.826;2023-05-09T15:29:27;26.00;19.50
1277;DHT22;631;51.024;13.826;2023-05-09T15:31:53;25.80;19.00
1277;DHT22;631;51.024;13.826;2023-05-09T15:34:19;25.60;19.20
1277;DHT22;631;51.024;13.826;2023-05-09T15:36:47;25.20;19.40
1277;DHT22;631;51.024;13.826;2023-05-09T15:39:12;24.60;20.10
1277;DHT22;631;51.024;13.826;2023-05-09T15:41:38;24.60;20.50
1277;DHT22;631;51.024;13.826;2023-05-09T15:44:03;24.20;20.80
1277;DHT22;631;51.024;13.826;2023-05-09T15:46:29;24.60;21.80
1277;DHT22;631;51.024;13.826;2023-05-09T15:48:56;25.10;20.80
1277;DHT22;631;51.024;13.826;2023-05-09T15:51:22;25.10;20.60
1277;DHT22;631;51.024;13.826;2023-05-09T15:53:48;25.10;20.80
1277;DHT22;631;51.024;13.826;2023-05-09T15:56:14;24.90;21.00
1277;DHT22;631;51.024;13.826;2023-05-09T15:58:40;24.90;21.10
1277;DHT22;631;51.024;13.826;2023-05-09T16:01:05;24.40;21.70
1277;DHT22;631;51.024;13.826;2023-05-09T16:03:35;23.30;21.60
1277;DHT22;631;51.024;13.826;2023-05-09T16:06:00;23.80;22.50
1277;DHT22;631;51.024;13.826;2023-05-09T16:08:26;23.60;22.40
1277;DHT22;631;51.024;13.826;2023-05-09T16:10:52;23.40;22.70
1277;DHT22;631;51.024;13.826;2023-05-09T16:13:17;23.50;23.10
1277;DHT22;631;51.024;13.826;2023-05-09T16:15:43;23.90;23.00
1277;DHT22;631;51.024;13.826;2023-05-09T16:18:09;24.30;23.20